PWT weather

Bremerton National Airport
Bremerton, Washington, United States

Public forecast

Using degrees Fahrenheit for public forecast. Weather courtesy of forecast.io.

METAR (pilot weather report)

Retrieved 2019/06/26 06:56 UTC (1 hour ago):

KPWT 260656Z AUTO 18004KT 10SM OVC055 13/11 A2991 RMK AO2 SLP143 T01330106

TAF (pilot weather forecast)

Retrieved 2019/06/26 06:39 UTC (1 hour ago):

TAF KPWT 260537Z 2606/2706 20005KT P6SM BKN070 OVC100 FM261200 VRB04KT P6SM SCT020 BKN050 OVC090 FM262000 20005KT P6SM VCSH BKN060 OVC100 FM262300 20007KT P6SM -SHRA BKN050 OVC080 FM270100 21004KT P6SM -SHRA OVC050